createdAt,value
2023-04-10T00:02:24.162Z,15.47
2023-04-10T00:04:51.336Z,16.13
2023-04-10T00:07:18.368Z,15.57
2023-04-10T00:09:45.622Z,15.87
2023-04-10T00:12:12.671Z,14.87
2023-04-10T00:14:39.422Z,15.43
2023-04-10T00:22:18.681Z,24.23
2023-04-10T00:24:45.896Z,18.43
2023-04-10T00:27:12.835Z,20.67
2023-04-10T00:29:39.943Z,21.87
2023-04-10T00:32:06.907Z,19.70
2023-04-10T00:34:33.682Z,22.53
2023-04-10T00:37:00.604Z,25.83
2023-04-10T00:39:27.611Z,26.47
2023-04-10T00:41:55.318Z,26.80
2023-04-10T00:44:23.290Z,25.53
2023-04-10T00:46:50.464Z,27.03
2023-04-10T00:49:18.515Z,29.43
2023-04-10T00:51:45.484Z,23.77
2023-04-10T00:54:12.475Z,32.67
2023-04-10T00:56:40.404Z,23.03
2023-04-10T00:59:07.685Z,19.97
2023-04-10T01:01:34.617Z,21.53
2023-04-10T01:04:02.075Z,19.53
2023-04-10T01:06:57.787Z,19.80
2023-04-10T01:09:44.414Z,17.47
2023-04-10T01:12:39.501Z,17.07
2023-04-10T01:15:12.941Z,13.97
2023-04-10T01:17:50.836Z,15.77
2023-04-10T01:20:23.656Z,14.80
2023-04-10T01:23:21.887Z,14.27
2023-04-10T01:25:54.065Z,13.50
2023-04-10T01:28:21.439Z,13.37
2023-04-10T01:30:52.386Z,15.43
2023-04-10T01:33:22.559Z,13.30
2023-04-10T01:35:58.179Z,14.03
2023-04-10T01:38:27.625Z,14.33
2023-04-10T01:40:56.026Z,14.50
2023-04-10T01:43:26.170Z,14.00
2023-04-10T01:45:53.490Z,14.97
2023-04-10T01:48:21.790Z,13.40
2023-04-10T01:50:49.509Z,13.47
2023-04-10T01:53:17.663Z,13.97
2023-04-10T01:55:44.914Z,14.43
2023-04-10T01:58:12.192Z,15.00
2023-04-10T02:00:43.585Z,13.07
2023-04-10T02:03:11.461Z,13.33
2023-04-10T02:05:50.992Z,15.87
2023-04-10T02:08:37.663Z,15.47
2023-04-10T02:11:15.430Z,19.60
2023-04-10T02:13:43.072Z,14.83
2023-04-10T02:16:11.809Z,14.97
2023-04-10T02:18:40.845Z,18.47
2023-04-10T02:21:08.325Z,18.03
2023-04-10T02:23:36.495Z,17.17
2023-04-10T02:26:10.029Z,17.03
2023-04-10T02:28:40.370Z,17.83
2023-04-10T02:31:07.947Z,17.93
2023-04-10T02:33:34.977Z,18.47
2023-04-10T02:36:02.227Z,19.07
2023-04-10T02:38:29.080Z,19.77
2023-04-10T02:40:56.176Z,18.70
2023-04-10T02:43:23.192Z,21.17
2023-04-10T02:45:49.983Z,18.03
2023-04-10T02:48:16.968Z,20.63
2023-04-10T02:50:46.523Z,18.10
2023-04-10T02:53:16.967Z,21.00
2023-04-10T02:55:43.805Z,19.20
2023-04-10T02:58:13.851Z,20.07
2023-04-10T03:00:41.745Z,19.23
2023-04-10T03:03:08.654Z,21.00
2023-04-10T03:05:36.070Z,23.23
2023-04-10T03:08:02.848Z,22.50
2023-04-10T03:10:29.738Z,20.73
2023-04-10T03:12:56.602Z,19.37
2023-04-10T03:15:23.389Z,20.03
2023-04-10T03:17:50.673Z,21.20
2023-04-10T03:20:17.625Z,21.80
2023-04-10T03:22:44.688Z,19.07
2023-04-10T03:25:11.538Z,18.80
2023-04-10T03:27:38.799Z,18.93
2023-04-10T03:30:06.476Z,19.83
2023-04-10T03:32:33.319Z,20.80
2023-04-10T03:35:00.147Z,23.53
2023-04-10T03:37:29.784Z,23.33
2023-04-10T03:39:56.526Z,20.27
2023-04-10T03:42:23.391Z,18.23
2023-04-10T03:44:50.324Z,21.37
2023-04-10T03:47:17.266Z,20.17
2023-04-10T03:49:44.233Z,18.80
2023-04-10T03:52:11.142Z,18.43
2023-04-10T03:54:37.939Z,19.50
2023-04-10T03:57:05.079Z,18.00
2023-04-10T03:59:38.652Z,17.50
2023-04-10T04:02:07.753Z,18.63
2023-04-10T04:04:34.922Z,18.43
2023-04-10T04:07:02.041Z,18.73
2023-04-10T04:09:28.841Z,17.93
2023-04-10T04:11:56.374Z,16.00
2023-04-10T04:14:23.895Z,16.10
2023-04-10T04:16:51.010Z,16.03
2023-04-10T04:19:17.877Z,13.97
2023-04-10T04:21:44.628Z,13.70
2023-04-10T04:24:11.517Z,13.50
2023-04-10T04:26:38.360Z,13.83
2023-04-10T04:29:05.323Z,13.03
2023-04-10T04:31:32.838Z,13.83
2023-04-10T04:34:00.589Z,13.63
2023-04-10T04:36:28.214Z,14.33
2023-04-10T04:38:55.357Z,16.63
2023-04-10T04:41:22.231Z,18.17
2023-04-10T04:43:49.533Z,16.33
2023-04-10T04:46:16.312Z,15.87
2023-04-10T04:48:43.143Z,17.03
2023-04-10T04:51:10.013Z,16.60
2023-04-10T04:53:37.014Z,13.50
2023-04-10T04:56:04.109Z,13.37
2023-04-10T04:58:31.248Z,14.53
2023-04-10T05:00:58.135Z,15.27
2023-04-10T05:03:25.646Z,15.07
2023-04-10T05:05:52.779Z,13.57
2023-04-10T05:08:19.872Z,13.90
2023-04-10T05:10:46.974Z,15.03
2023-04-10T05:13:15.702Z,14.27
2023-04-10T05:15:43.018Z,13.63
2023-04-10T05:18:10.124Z,18.27
2023-04-10T05:20:37.688Z,17.17
2023-04-10T05:23:04.682Z,19.27
2023-04-10T05:25:31.774Z,18.83
2023-04-10T05:27:58.770Z,18.07
2023-04-10T05:30:25.978Z,17.87
2023-04-10T05:32:52.822Z,17.53
2023-04-10T05:35:19.732Z,19.13
2023-04-10T05:37:46.762Z,16.70
2023-04-10T05:40:13.620Z,15.67
2023-04-10T05:42:41.411Z,14.47
2023-04-10T05:45:09.343Z,16.30
2023-04-10T05:47:36.314Z,15.33
2023-04-10T05:50:03.319Z,15.53
2023-04-10T05:52:31.027Z,16.77
2023-04-10T05:54:58.065Z,14.90
2023-04-10T05:57:25.925Z,18.60
2023-04-10T05:59:52.680Z,15.83
2023-04-10T06:02:19.688Z,16.87
2023-04-10T06:04:46.934Z,16.97
2023-04-10T06:07:13.848Z,17.20
2023-04-10T06:09:40.782Z,17.50
2023-04-10T06:12:07.877Z,16.20
2023-04-10T06:14:35.221Z,16.87
2023-04-10T06:17:02.198Z,17.10
2023-04-10T06:19:28.970Z,17.77
2023-04-10T06:21:55.874Z,18.30
2023-04-10T06:24:22.736Z,18.63
2023-04-10T06:26:49.705Z,18.47
2023-04-10T06:29:16.697Z,19.23
2023-04-10T06:31:44.220Z,20.33
2023-04-10T06:34:11.248Z,19.70
2023-04-10T06:36:38.675Z,19.63
2023-04-10T06:39:06.612Z,19.77
2023-04-10T06:41:33.676Z,19.37
2023-04-10T06:44:01.887Z,19.73
2023-04-10T06:46:30.640Z,19.40
2023-04-10T06:48:57.591Z,20.47
2023-04-10T06:51:25.961Z,20.00
2023-04-10T06:53:52.874Z,18.17
2023-04-10T06:56:20.471Z,19.90
2023-04-10T06:58:47.390Z,18.37
2023-04-10T07:01:14.353Z,18.13
2023-04-10T07:03:41.450Z,19.40
2023-04-10T07:06:09.923Z,18.60
2023-04-10T07:08:36.911Z,18.20
2023-04-10T07:11:03.785Z,17.97
2023-04-10T07:13:30.690Z,18.07
2023-04-10T07:15:57.629Z,17.57
2023-04-10T07:18:24.632Z,17.20
2023-04-10T07:20:51.879Z,17.37
2023-04-10T07:23:19.706Z,16.10
2023-04-10T07:25:46.888Z,15.73
2023-04-10T07:28:13.886Z,14.90
2023-04-10T07:30:40.676Z,16.33
2023-04-10T07:33:07.849Z,15.60
2023-04-10T07:35:35.060Z,15.17
2023-04-10T07:38:01.933Z,14.90
2023-04-10T07:40:28.942Z,12.97
2023-04-10T07:42:55.853Z,12.47
2023-04-10T07:45:22.693Z,11.10
2023-04-10T07:47:49.562Z,10.73
2023-04-10T07:50:16.385Z,12.80
2023-04-10T07:52:43.174Z,12.27
2023-04-10T07:55:10.507Z,10.98
2023-04-10T07:57:37.582Z,10.53
2023-04-10T08:00:05.076Z,9.90
2023-04-10T08:02:32.184Z,10.93
2023-04-10T08:04:59.063Z,12.03
2023-04-10T08:07:25.918Z,11.00
2023-04-10T08:09:52.641Z,10.63
2023-04-10T08:12:19.331Z,9.82
2023-04-10T08:14:46.062Z,11.18
2023-04-10T08:17:14.913Z,10.93
2023-04-10T08:19:43.375Z,9.60
2023-04-10T08:22:10.401Z,8.67
2023-04-10T08:24:37.135Z,9.88
2023-04-10T08:27:03.913Z,11.30
2023-04-10T08:29:30.899Z,10.38
2023-04-10T08:32:00.674Z,9.00
2023-04-10T08:34:28.235Z,9.68
2023-04-10T08:36:55.542Z,7.85
2023-04-10T08:39:22.367Z,8.68
2023-04-10T08:41:49.292Z,7.28
2023-04-10T08:44:16.826Z,7.35
2023-04-10T08:46:45.325Z,8.07
2023-04-10T08:49:21.982Z,8.18
2023-04-10T08:51:59.145Z,8.13
2023-04-10T08:54:30.729Z,8.82
2023-04-10T08:56:58.617Z,7.97
2023-04-10T08:59:25.635Z,7.82
2023-04-10T09:01:53.565Z,7.90
2023-04-10T09:04:21.285Z,7.85
2023-04-10T09:06:48.117Z,5.57
2023-04-10T09:09:14.853Z,6.40
2023-04-10T09:11:56.358Z,6.35
2023-04-10T09:14:24.915Z,5.87
2023-04-10T09:16:53.272Z,5.90
2023-04-10T09:19:33.448Z,7.10
2023-04-10T09:22:00.397Z,6.63
2023-04-10T09:24:27.346Z,6.63
2023-04-10T09:26:54.732Z,6.30
2023-04-10T09:29:21.610Z,5.60
2023-04-10T09:31:48.477Z,6.20
2023-04-10T09:34:23.355Z,6.57
2023-04-10T09:36:58.638Z,6.47
2023-04-10T09:39:37.085Z,5.68
2023-04-10T09:42:04.303Z,5.93
2023-04-10T09:44:32.817Z,5.88
2023-04-10T09:47:20.156Z,6.15
2023-04-10T09:49:55.110Z,5.88
2023-04-10T09:52:27.765Z,5.97
2023-04-10T09:54:57.423Z,5.53
2023-04-10T09:57:26.228Z,6.20
2023-04-10T09:59:55.078Z,5.43
2023-04-10T10:02:24.533Z,5.68
2023-04-10T10:04:52.725Z,6.20
2023-04-10T10:07:21.413Z,5.43
2023-04-10T10:09:50.388Z,5.20
2023-04-10T10:12:34.550Z,5.10
2023-04-10T10:15:08.973Z,6.05
2023-04-10T10:17:43.533Z,4.50
2023-04-10T10:20:11.795Z,4.78
2023-04-10T10:22:39.539Z,5.20
2023-04-10T10:25:08.348Z,4.82
2023-04-10T10:27:38.758Z,4.78
2023-04-10T10:30:20.356Z,4.90
2023-04-10T10:32:54.643Z,4.72
2023-04-10T10:35:22.987Z,4.03
2023-04-10T10:37:51.086Z,4.38
2023-04-10T10:40:56.838Z,4.60
2023-04-10T10:43:56.884Z,5.20
2023-04-10T10:46:48.849Z,4.30
2023-04-10T10:49:15.968Z,5.57
2023-04-10T10:51:50.551Z,4.28
2023-04-10T10:54:34.978Z,5.35
2023-04-10T10:57:05.413Z,4.63
2023-04-10T10:59:48.130Z,4.55
2023-04-10T11:02:19.555Z,3.55
2023-04-10T11:04:48.075Z,3.80
2023-04-10T11:07:16.188Z,3.83
2023-04-10T11:09:57.231Z,3.95
2023-04-10T11:12:25.465Z,3.75
2023-04-10T11:15:00.632Z,3.70
2023-04-10T11:17:46.784Z,4.03
2023-04-10T11:20:13.579Z,3.80
2023-04-10T11:23:12.771Z,3.63
2023-04-10T11:25:52.951Z,3.45
2023-04-10T11:28:33.188Z,3.55
2023-04-10T11:31:21.816Z,4.00
2023-04-10T11:33:52.133Z,3.92
2023-04-10T11:36:19.104Z,3.63
2023-04-10T11:38:59.434Z,4.05
2023-04-10T11:41:34.505Z,3.78
2023-04-10T11:44:03.274Z,3.65
2023-04-10T11:46:31.006Z,3.20
2023-04-10T11:49:03.872Z,5.43
2023-04-10T11:51:31.686Z,4.20
2023-04-10T11:54:12.200Z,6.68
2023-04-10T11:56:42.125Z,3.50
2023-04-10T11:59:11.215Z,3.08
2023-04-10T12:01:42.112Z,3.05
2023-04-10T12:04:17.926Z,2.90
2023-04-10T12:06:51.398Z,2.78
2023-04-10T12:09:21.285Z,3.35
2023-04-10T12:11:59.374Z,4.25
2023-04-10T12:14:36.984Z,3.45
2023-04-10T12:17:05.696Z,2.78
2023-04-10T12:19:33.805Z,3.70
2023-04-10T12:22:04.007Z,2.85
2023-04-10T12:24:53.960Z,2.38
2023-04-10T12:27:27.871Z,2.70
2023-04-10T12:29:56.948Z,2.78
2023-04-10T12:32:25.017Z,2.72
2023-04-10T12:34:53.217Z,3.05
2023-04-10T12:37:20.837Z,2.90
2023-04-10T12:39:47.815Z,3.28
2023-04-10T12:42:20.692Z,3.00
2023-04-10T12:44:55.847Z,2.58
2023-04-10T12:47:24.020Z,2.85
2023-04-10T12:50:11.118Z,2.47
2023-04-10T12:52:45.290Z,2.10
2023-04-10T12:55:16.215Z,2.88
2023-04-10T12:57:47.816Z,2.97
2023-04-10T13:00:19.999Z,3.60
2023-04-10T13:02:48.703Z,2.05
2023-04-10T13:05:15.991Z,2.78
2023-04-10T13:07:42.909Z,2.80
2023-04-10T13:10:10.397Z,1.95
2023-04-10T13:12:38.995Z,2.20
2023-04-10T13:15:07.740Z,2.83
2023-04-10T13:17:34.915Z,2.90
2023-04-10T13:20:02.018Z,2.72
2023-04-10T13:22:28.800Z,3.08
2023-04-10T13:24:55.612Z,2.78
2023-04-10T13:27:22.402Z,4.30
2023-04-10T13:29:49.158Z,6.00
2023-04-10T13:32:15.928Z,3.50
2023-04-10T13:34:42.707Z,2.53
2023-04-10T13:37:13.030Z,2.75
2023-04-10T13:39:39.807Z,5.28
2023-04-10T13:42:06.584Z,2.63
2023-04-10T13:44:33.378Z,3.20
2023-04-10T13:47:00.181Z,2.67
2023-04-10T13:49:30.411Z,3.08
2023-04-10T13:51:58.029Z,2.38
2023-04-10T13:54:29.563Z,2.53
2023-04-10T13:56:57.769Z,2.53
2023-04-10T13:59:25.025Z,2.85
2023-04-10T14:01:52.789Z,2.45
2023-04-10T14:04:20.013Z,3.20
2023-04-10T14:06:47.012Z,2.70
2023-04-10T14:09:13.776Z,2.78
2023-04-10T14:11:40.560Z,2.60
2023-04-10T14:14:07.372Z,2.88
2023-04-10T14:16:34.231Z,2.97
2023-04-10T14:19:00.962Z,2.75
2023-04-10T14:21:27.727Z,2.40
2023-04-10T14:23:54.459Z,2.13
2023-04-10T14:26:21.640Z,2.13
2023-04-10T14:28:48.370Z,2.28
2023-04-10T14:31:15.468Z,2.38
2023-04-10T14:33:42.226Z,2.55
2023-04-10T14:36:09.514Z,2.63
2023-04-10T14:38:36.968Z,2.35
2023-04-10T14:41:03.845Z,2.00
2023-04-10T14:43:30.696Z,2.65
2023-04-10T14:45:57.429Z,2.70
2023-04-10T14:48:24.264Z,2.22
2023-04-10T14:50:51.045Z,3.15
2023-04-10T14:53:17.855Z,2.67
2023-04-10T14:55:44.617Z,2.38
2023-04-10T14:58:11.405Z,5.50
2023-04-10T15:00:38.307Z,5.93
2023-04-10T15:03:06.504Z,3.20
2023-04-10T15:05:33.555Z,2.63
2023-04-10T15:08:00.341Z,2.70
2023-04-10T15:10:30.723Z,2.53
2023-04-10T15:12:57.462Z,1.92
2023-04-10T15:15:24.253Z,2.15
2023-04-10T15:17:51.035Z,2.97
2023-04-10T15:20:17.820Z,2.25
2023-04-10T15:22:45.069Z,2.00
2023-04-10T15:25:14.863Z,2.10
2023-04-10T15:27:41.988Z,2.67
2023-04-10T15:30:09.079Z,2.45
2023-04-10T15:32:38.106Z,3.85
2023-04-10T15:35:05.502Z,3.28
2023-04-10T15:37:34.456Z,3.55
2023-04-10T15:40:01.265Z,3.08
2023-04-10T15:42:28.172Z,2.58
2023-04-10T15:44:54.946Z,3.83
2023-04-10T15:47:21.725Z,2.97
2023-04-10T15:49:48.504Z,2.58
2023-04-10T15:52:16.449Z,3.00
2023-04-10T15:54:44.467Z,3.22
2023-04-10T15:57:11.470Z,2.92
2023-04-10T15:59:38.504Z,3.20
2023-04-10T16:02:05.613Z,4.20
2023-04-10T16:04:32.566Z,4.10
2023-04-10T16:06:59.803Z,4.15
2023-04-10T16:09:27.235Z,3.30
2023-04-10T16:11:56.013Z,3.72
2023-04-10T16:14:23.056Z,3.85
2023-04-10T16:16:51.200Z,3.85
2023-04-10T16:19:17.929Z,5.18
2023-04-10T16:21:44.872Z,5.35
2023-04-10T16:24:11.811Z,5.35
2023-04-10T16:26:38.995Z,4.63
2023-04-10T16:29:06.575Z,5.03
2023-04-10T16:31:33.527Z,4.47
2023-04-10T16:34:01.394Z,4.82
2023-04-10T16:36:28.313Z,4.43
2023-04-10T16:38:55.634Z,4.55
2023-04-10T16:41:23.077Z,4.20
2023-04-10T16:43:50.238Z,4.50
2023-04-10T16:46:17.198Z,4.85
2023-04-10T16:48:44.385Z,4.53
2023-04-10T16:51:20.261Z,4.85
2023-04-10T16:53:47.223Z,4.97
2023-04-10T16:56:15.266Z,5.22
2023-04-10T16:58:42.776Z,5.05
2023-04-10T17:01:18.017Z,5.38
2023-04-10T17:03:47.539Z,6.00
2023-04-10T17:06:16.095Z,6.50
2023-04-10T17:08:43.817Z,7.00
2023-04-10T17:11:12.729Z,7.50
2023-04-10T17:13:42.856Z,7.55
2023-04-10T17:16:10.004Z,6.68
2023-04-10T17:18:36.967Z,7.00
2023-04-10T17:21:03.951Z,7.07
2023-04-10T17:23:30.866Z,8.05
2023-04-10T17:25:57.895Z,9.25
2023-04-10T17:28:24.808Z,8.48
2023-04-10T17:30:51.555Z,8.75
2023-04-10T17:33:18.464Z,8.50
2023-04-10T17:35:45.518Z,10.13
2023-04-10T17:38:12.344Z,12.25
2023-04-10T17:40:41.172Z,12.63
2023-04-10T17:43:08.521Z,21.25
2023-04-10T17:45:39.795Z,27.27
2023-04-10T17:48:07.581Z,28.20
2023-04-10T17:50:35.059Z,25.05
2023-04-10T17:53:01.858Z,18.88
2023-04-10T17:55:28.601Z,18.75
2023-04-10T17:57:57.950Z,20.23
2023-04-10T18:00:25.132Z,20.35
2023-04-10T18:02:58.053Z,21.05
2023-04-10T18:05:25.325Z,24.70
2023-04-10T18:07:52.281Z,19.73
2023-04-10T18:10:19.457Z,18.10
2023-04-10T18:12:46.383Z,16.23
2023-04-10T18:15:16.420Z,16.23
2023-04-10T18:17:43.378Z,17.00
2023-04-10T18:20:10.677Z,15.87
2023-04-10T18:22:37.394Z,14.13
2023-04-10T18:25:05.286Z,13.97
2023-04-10T18:27:34.376Z,17.17
2023-04-10T18:30:01.265Z,15.43
2023-04-10T18:32:27.998Z,14.63
2023-04-10T18:34:54.730Z,14.07
2023-04-10T18:37:21.460Z,15.60
2023-04-10T18:39:48.372Z,15.53
2023-04-10T18:42:15.221Z,14.87
2023-04-10T18:44:42.194Z,13.17
2023-04-10T18:47:11.033Z,13.83
2023-04-10T18:49:38.006Z,15.63
2023-04-10T18:52:04.910Z,15.73
2023-04-10T18:54:33.879Z,17.83
2023-04-10T18:57:01.003Z,22.73
2023-04-10T18:59:28.385Z,22.80
2023-04-10T19:01:55.998Z,23.27
2023-04-10T19:04:23.089Z,19.63
2023-04-10T19:06:50.511Z,24.23
2023-04-10T19:09:17.282Z,203.77
2023-04-10T19:11:44.043Z,160.73
2023-04-10T19:14:10.817Z,128.07
2023-04-10T19:16:37.629Z,81.90
2023-04-10T19:19:04.422Z,52.87
2023-04-10T19:21:31.781Z,40.87
2023-04-10T19:23:58.734Z,39.23
2023-04-10T19:26:25.532Z,49.47
2023-04-10T19:28:52.240Z,47.57
2023-04-10T19:31:19.686Z,47.20
2023-04-10T19:33:46.553Z,53.63
2023-04-10T19:36:16.424Z,50.80
2023-04-10T19:38:48.523Z,52.43
2023-04-10T19:41:17.598Z,45.43
2023-04-10T19:43:44.764Z,43.97
2023-04-10T19:46:19.099Z,46.87
2023-04-10T19:48:46.723Z,42.60
2023-04-10T19:51:13.633Z,43.43
2023-04-10T19:53:41.903Z,42.43
2023-04-10T19:56:08.812Z,38.37
2023-04-10T19:58:41.211Z,39.63
2023-04-10T20:01:09.324Z,39.87
2023-04-10T20:03:38.621Z,40.23
2023-04-10T20:06:09.017Z,36.73
2023-04-10T20:08:36.617Z,39.60
2023-04-10T20:11:06.263Z,40.20
2023-04-10T20:13:34.839Z,40.57
2023-04-10T20:16:03.095Z,40.23
2023-04-10T20:18:31.671Z,39.77
2023-04-10T20:20:58.601Z,40.30
2023-04-10T20:23:25.453Z,42.93
2023-04-10T20:25:52.536Z,38.23
2023-04-10T20:28:19.502Z,34.33
2023-04-10T20:30:46.386Z,37.60
2023-04-10T20:33:13.840Z,37.30
2023-04-10T20:35:40.919Z,36.47
2023-04-10T20:38:07.809Z,40.23
2023-04-10T20:40:35.924Z,37.53
2023-04-10T20:43:02.780Z,37.43
2023-04-10T20:45:30.796Z,35.07
2023-04-10T20:47:57.934Z,37.10
2023-04-10T20:50:24.781Z,36.23
2023-04-10T20:52:51.782Z,37.07
2023-04-10T20:55:18.620Z,46.93
2023-04-10T20:57:45.506Z,41.40
2023-04-10T21:00:13.170Z,38.97
2023-04-10T21:02:41.191Z,35.27
2023-04-10T21:05:08.790Z,40.53
2023-04-10T21:07:35.542Z,48.87
2023-04-10T21:10:02.414Z,46.47
2023-04-10T21:12:29.217Z,43.93
2023-04-10T21:14:56.113Z,46.47
2023-04-10T21:17:23.561Z,44.10
2023-04-10T21:19:50.584Z,43.23
2023-04-10T21:22:17.431Z,42.53
2023-04-10T21:24:46.297Z,41.47
2023-04-10T21:27:13.291Z,41.03
2023-04-10T21:29:40.309Z,40.87
2023-04-10T21:32:07.188Z,40.60
2023-04-10T21:34:34.106Z,41.13
2023-04-10T21:37:01.054Z,41.17
2023-04-10T21:39:29.389Z,42.17
2023-04-10T21:41:56.315Z,44.53
2023-04-10T21:44:23.196Z,51.80
2023-04-10T21:46:49.934Z,49.57
2023-04-10T21:49:16.838Z,46.70
2023-04-10T21:51:43.749Z,44.60
2023-04-10T21:54:10.497Z,43.80
2023-04-10T21:56:38.818Z,45.87
2023-04-10T21:59:05.925Z,44.47
2023-04-10T22:01:33.864Z,45.63
2023-04-10T22:04:01.011Z,41.90
2023-04-10T22:06:27.978Z,48.87
2023-04-10T22:08:54.901Z,46.50
2023-04-10T22:11:21.890Z,49.07
2023-04-10T22:13:48.813Z,50.80
2023-04-10T22:16:15.780Z,48.80
2023-04-10T22:18:42.713Z,52.70
2023-04-10T22:21:09.604Z,51.50
2023-04-10T22:23:36.490Z,56.70
2023-04-10T22:26:03.285Z,54.17
2023-04-10T22:28:30.187Z,57.53
2023-04-10T22:30:57.077Z,52.53
2023-04-10T22:33:24.311Z,48.20
2023-04-10T22:35:53.629Z,47.50
2023-04-10T22:38:20.606Z,46.37
2023-04-10T22:40:47.406Z,46.83
2023-04-10T22:43:14.253Z,45.93
2023-04-10T22:45:42.096Z,44.43
2023-04-10T22:48:08.862Z,43.83
2023-04-10T22:50:36.191Z,43.00
2023-04-10T22:53:03.176Z,39.57
2023-04-10T22:55:30.065Z,40.03
2023-04-10T22:57:56.837Z,44.37
2023-04-10T23:00:23.744Z,40.67
2023-04-10T23:02:50.574Z,38.17
2023-04-10T23:05:17.670Z,36.60
2023-04-10T23:07:44.594Z,40.53
2023-04-10T23:10:11.436Z,46.37
2023-04-10T23:12:38.219Z,41.57
2023-04-10T23:15:06.334Z,39.33
2023-04-10T23:17:33.385Z,40.67
2023-04-10T23:20:00.131Z,38.70
2023-04-10T23:22:31.137Z,37.97
2023-04-10T23:24:58.148Z,37.80
2023-04-10T23:27:25.265Z,37.03
2023-04-10T23:29:52.303Z,36.20
2023-04-10T23:32:19.099Z,38.53
2023-04-10T23:34:46.045Z,34.73
2023-04-10T23:37:12.840Z,31.67
2023-04-10T23:39:39.941Z,32.40
2023-04-10T23:42:06.820Z,27.03
2023-04-10T23:44:33.732Z,27.77
2023-04-10T23:47:00.791Z,27.07
2023-04-10T23:49:28.960Z,24.67
2023-04-10T23:51:55.745Z,25.03
2023-04-10T23:54:22.608Z,29.17
2023-04-10T23:56:49.399Z,33.07
2023-04-10T23:59:17.051Z,29.10
